sensor_id;sensor_type;location;lat;lon;timestamp;P1;durP1;ratioP1;P2;durP2;ratioP2
18732;SDS011;9495;51.210;2.934;2024-03-08T00:00:45;45.47;;;29.90;;
18732;SDS011;9495;51.210;2.934;2024-03-08T00:03:13;46.77;;;29.37;;
18732;SDS011;9495;51.210;2.934;2024-03-08T00:05:42;42.93;;;28.37;;
18732;SDS011;9495;51.210;2.934;2024-03-08T00:08:10;43.70;;;28.03;;
18732;SDS011;9495;51.210;2.934;2024-03-08T00:10:38;48.03;;;29.33;;
18732;SDS011;9495;51.210;2.934;2024-03-08T00:13:07;43.37;;;29.63;;
18732;SDS011;9495;51.210;2.934;2024-03-08T00:15:35;39.73;;;28.07;;
18732;SDS011;9495;51.210;2.934;2024-03-08T00:18:05;44.03;;;26.20;;
18732;SDS011;9495;51.210;2.934;2024-03-08T00:20:33;43.40;;;28.07;;
18732;SDS011;9495;51.210;2.934;2024-03-08T00:23:02;46.30;;;28.97;;
18732;SDS011;9495;51.210;2.934;2024-03-08T00:25:30;46.10;;;27.00;;
18732;SDS011;9495;51.210;2.934;2024-03-08T00:28:00;43.40;;;28.33;;
18732;SDS011;9495;51.210;2.934;2024-03-08T00:30:28;43.03;;;27.90;;
18732;SDS011;9495;51.210;2.934;2024-03-08T00:32:57;42.00;;;26.97;;
18732;SDS011;9495;51.210;2.934;2024-03-08T00:35:27;42.50;;;26.73;;
18732;SDS011;9495;51.210;2.934;2024-03-08T00:37:56;43.30;;;28.23;;
18732;SDS011;9495;51.210;2.934;2024-03-08T00:40:25;43.53;;;27.70;;
18732;SDS011;9495;51.210;2.934;2024-03-08T00:42:53;40.63;;;26.30;;
18732;SDS011;9495;51.210;2.934;2024-03-08T00:45:22;43.87;;;27.83;;
18732;SDS011;9495;51.210;2.934;2024-03-08T00:47:50;43.73;;;28.10;;
18732;SDS011;9495;51.210;2.934;2024-03-08T00:50:19;43.83;;;25.63;;
18732;SDS011;9495;51.210;2.934;2024-03-08T00:52:48;42.10;;;26.77;;
18732;SDS011;9495;51.210;2.934;2024-03-08T00:55:17;47.57;;;29.90;;
18732;SDS011;9495;51.210;2.934;2024-03-08T00:57:45;49.27;;;28.43;;
18732;SDS011;9495;51.210;2.934;2024-03-08T01:00:14;51.93;;;30.10;;
18732;SDS011;9495;51.210;2.934;2024-03-08T01:02:43;54.60;;;32.37;;
18732;SDS011;9495;51.210;2.934;2024-03-08T01:05:12;54.27;;;32.30;;
18732;SDS011;9495;51.210;2.934;2024-03-08T01:07:40;62.67;;;33.13;;
18732;SDS011;9495;51.210;2.934;2024-03-08T01:10:10;55.20;;;33.53;;
18732;SDS011;9495;51.210;2.934;2024-03-08T01:12:38;60.93;;;35.10;;
18732;SDS011;9495;51.210;2.934;2024-03-08T01:15:07;60.73;;;34.67;;
18732;SDS011;9495;51.210;2.934;2024-03-08T01:17:37;59.27;;;35.87;;
18732;SDS011;9495;51.210;2.934;2024-03-08T01:20:06;64.87;;;37.23;;
18732;SDS011;9495;51.210;2.934;2024-03-08T01:22:37;63.70;;;36.50;;
18732;SDS011;9495;51.210;2.934;2024-03-08T01:25:06;65.90;;;38.20;;
18732;SDS011;9495;51.210;2.934;2024-03-08T01:27:36;66.50;;;37.73;;
18732;SDS011;9495;51.210;2.934;2024-03-08T01:30:05;75.47;;;40.83;;
18732;SDS011;9495;51.210;2.934;2024-03-08T01:32:36;71.27;;;42.53;;
18732;SDS011;9495;51.210;2.934;2024-03-08T01:35:05;75.20;;;40.03;;
18732;SDS011;9495;51.210;2.934;2024-03-08T01:37:36;76.67;;;40.97;;
18732;SDS011;9495;51.210;2.934;2024-03-08T01:40:04;71.90;;;40.73;;
18732;SDS011;9495;51.210;2.934;2024-03-08T01:42:36;77.67;;;41.87;;
18732;SDS011;9495;51.210;2.934;2024-03-08T01:45:05;79.30;;;41.83;;
18732;SDS011;9495;51.210;2.934;2024-03-08T01:47:34;85.03;;;42.20;;
18732;SDS011;9495;51.210;2.934;2024-03-08T01:50:03;79.73;;;42.40;;
18732;SDS011;9495;51.210;2.934;2024-03-08T01:52:33;74.20;;;41.13;;
18732;SDS011;9495;51.210;2.934;2024-03-08T01:55:03;82.47;;;43.67;;
18732;SDS011;9495;51.210;2.934;2024-03-08T01:57:35;84.70;;;43.27;;
18732;SDS011;9495;51.210;2.934;2024-03-08T02:00:05;83.60;;;44.90;;
18732;SDS011;9495;51.210;2.934;2024-03-08T02:02:37;77.13;;;40.13;;
18732;SDS011;9495;51.210;2.934;2024-03-08T02:05:07;87.33;;;43.27;;
18732;SDS011;9495;51.210;2.934;2024-03-08T02:07:36;84.60;;;45.77;;
18732;SDS011;9495;51.210;2.934;2024-03-08T02:10:05;87.77;;;41.17;;
18732;SDS011;9495;51.210;2.934;2024-03-08T02:12:35;86.57;;;45.17;;
18732;SDS011;9495;51.210;2.934;2024-03-08T02:15:04;92.07;;;45.27;;
18732;SDS011;9495;51.210;2.934;2024-03-08T02:17:34;83.70;;;45.23;;
18732;SDS011;9495;51.210;2.934;2024-03-08T02:20:03;87.33;;;45.10;;
18732;SDS011;9495;51.210;2.934;2024-03-08T02:22:33;84.70;;;44.90;;
18732;SDS011;9495;51.210;2.934;2024-03-08T02:25:02;83.33;;;44.50;;
18732;SDS011;9495;51.210;2.934;2024-03-08T02:27:31;81.57;;;43.13;;
18732;SDS011;9495;51.210;2.934;2024-03-08T02:30:00;84.67;;;44.43;;
18732;SDS011;9495;51.210;2.934;2024-03-08T02:32:28;92.27;;;45.60;;
18732;SDS011;9495;51.210;2.934;2024-03-08T02:34:59;89.17;;;44.80;;
18732;SDS011;9495;51.210;2.934;2024-03-08T02:37:27;86.83;;;44.47;;
18732;SDS011;9495;51.210;2.934;2024-03-08T02:39:57;85.67;;;44.70;;
18732;SDS011;9495;51.210;2.934;2024-03-08T02:42:26;91.00;;;45.33;;
18732;SDS011;9495;51.210;2.934;2024-03-08T02:44:54;93.00;;;45.57;;
18732;SDS011;9495;51.210;2.934;2024-03-08T02:47:23;86.63;;;43.27;;
18732;SDS011;9495;51.210;2.934;2024-03-08T02:49:53;86.97;;;44.47;;
18732;SDS011;9495;51.210;2.934;2024-03-08T02:52:22;84.63;;;44.13;;
18732;SDS011;9495;51.210;2.934;2024-03-08T02:54:51;92.60;;;45.47;;
18732;SDS011;9495;51.210;2.934;2024-03-08T02:57:21;88.93;;;44.47;;
18732;SDS011;9495;51.210;2.934;2024-03-08T02:59:49;90.00;;;45.83;;
18732;SDS011;9495;51.210;2.934;2024-03-08T03:02:18;86.47;;;43.17;;
18732;SDS011;9495;51.210;2.934;2024-03-08T03:04:46;88.93;;;45.40;;
18732;SDS011;9495;51.210;2.934;2024-03-08T03:07:15;89.73;;;45.70;;
18732;SDS011;9495;51.210;2.934;2024-03-08T03:09:43;89.50;;;44.13;;
18732;SDS011;9495;51.210;2.934;2024-03-08T03:12:11;85.93;;;43.63;;
18732;SDS011;9495;51.210;2.934;2024-03-08T03:14:42;85.13;;;44.30;;
18732;SDS011;9495;51.210;2.934;2024-03-08T03:17:10;90.00;;;46.63;;
18732;SDS011;9495;51.210;2.934;2024-03-08T03:19:40;81.03;;;44.27;;
18732;SDS011;9495;51.210;2.934;2024-03-08T03:22:11;86.97;;;44.73;;
18732;SDS011;9495;51.210;2.934;2024-03-08T03:24:39;92.47;;;44.97;;
18732;SDS011;9495;51.210;2.934;2024-03-08T03:27:08;86.27;;;41.83;;
18732;SDS011;9495;51.210;2.934;2024-03-08T03:29:38;85.00;;;43.97;;
18732;SDS011;9495;51.210;2.934;2024-03-08T03:32:10;87.80;;;45.30;;
18732;SDS011;9495;51.210;2.934;2024-03-08T03:34:38;84.27;;;45.03;;
18732;SDS011;9495;51.210;2.934;2024-03-08T03:37:06;85.97;;;45.97;;
18732;SDS011;9495;51.210;2.934;2024-03-08T03:39:38;90.00;;;44.77;;
18732;SDS011;9495;51.210;2.934;2024-03-08T03:42:15;88.70;;;45.23;;
18732;SDS011;9495;51.210;2.934;2024-03-08T03:44:44;88.60;;;43.93;;
18732;SDS011;9495;51.210;2.934;2024-03-08T03:47:15;86.27;;;44.90;;
18732;SDS011;9495;51.210;2.934;2024-03-08T03:49:43;83.77;;;43.33;;
18732;SDS011;9495;51.210;2.934;2024-03-08T03:52:12;79.73;;;42.87;;
18732;SDS011;9495;51.210;2.934;2024-03-08T03:54:42;87.80;;;44.67;;
18732;SDS011;9495;51.210;2.934;2024-03-08T03:57:10;86.60;;;44.33;;
18732;SDS011;9495;51.210;2.934;2024-03-08T03:59:38;87.63;;;44.80;;
18732;SDS011;9495;51.210;2.934;2024-03-08T04:02:08;93.00;;;46.07;;
18732;SDS011;9495;51.210;2.934;2024-03-08T04:04:37;79.27;;;41.47;;
18732;SDS011;9495;51.210;2.934;2024-03-08T04:07:06;86.60;;;43.80;;
18732;SDS011;9495;51.210;2.934;2024-03-08T04:09:36;76.07;;;43.03;;
18732;SDS011;9495;51.210;2.934;2024-03-08T04:12:04;82.03;;;43.07;;
18732;SDS011;9495;51.210;2.934;2024-03-08T04:14:33;83.03;;;42.20;;
18732;SDS011;9495;51.210;2.934;2024-03-08T04:17:02;82.67;;;44.30;;
18732;SDS011;9495;51.210;2.934;2024-03-08T04:19:30;80.10;;;43.83;;
18732;SDS011;9495;51.210;2.934;2024-03-08T04:22:00;79.37;;;44.40;;
18732;SDS011;9495;51.210;2.934;2024-03-08T04:24:28;86.40;;;46.37;;
18732;SDS011;9495;51.210;2.934;2024-03-08T04:26:57;82.53;;;44.00;;
18732;SDS011;9495;51.210;2.934;2024-03-08T04:29:26;83.27;;;42.97;;
18732;SDS011;9495;51.210;2.934;2024-03-08T04:31:54;83.17;;;45.07;;
18732;SDS011;9495;51.210;2.934;2024-03-08T04:34:23;79.53;;;41.73;;
18732;SDS011;9495;51.210;2.934;2024-03-08T04:36:51;75.37;;;43.83;;
18732;SDS011;9495;51.210;2.934;2024-03-08T04:39:21;82.23;;;43.00;;
18732;SDS011;9495;51.210;2.934;2024-03-08T04:41:49;77.47;;;43.37;;
18732;SDS011;9495;51.210;2.934;2024-03-08T04:44:18;82.73;;;43.30;;
18732;SDS011;9495;51.210;2.934;2024-03-08T04:46:47;79.40;;;43.23;;
18732;SDS011;9495;51.210;2.934;2024-03-08T04:49:15;82.07;;;43.77;;
18732;SDS011;9495;51.210;2.934;2024-03-08T04:51:44;74.03;;;43.30;;
18732;SDS011;9495;51.210;2.934;2024-03-08T04:54:12;79.57;;;42.20;;
18732;SDS011;9495;51.210;2.934;2024-03-08T04:56:42;77.20;;;44.50;;
18732;SDS011;9495;51.210;2.934;2024-03-08T04:59:11;75.97;;;43.20;;
18732;SDS011;9495;51.210;2.934;2024-03-08T05:01:40;75.93;;;43.90;;
18732;SDS011;9495;51.210;2.934;2024-03-08T05:04:08;72.07;;;42.30;;
18732;SDS011;9495;51.210;2.934;2024-03-08T05:06:37;81.23;;;43.93;;
18732;SDS011;9495;51.210;2.934;2024-03-08T05:09:05;69.30;;;42.40;;
18732;SDS011;9495;51.210;2.934;2024-03-08T05:11:40;72.47;;;43.73;;
18732;SDS011;9495;51.210;2.934;2024-03-08T05:14:11;71.67;;;41.53;;
18732;SDS011;9495;51.210;2.934;2024-03-08T05:16:43;76.47;;;42.10;;
18732;SDS011;9495;51.210;2.934;2024-03-08T05:19:15;70.77;;;43.53;;
18732;SDS011;9495;51.210;2.934;2024-03-08T05:21:45;68.10;;;41.90;;
18732;SDS011;9495;51.210;2.934;2024-03-08T05:24:14;77.60;;;43.87;;
18732;SDS011;9495;51.210;2.934;2024-03-08T05:26:45;70.63;;;40.53;;
18732;SDS011;9495;51.210;2.934;2024-03-08T05:29:14;71.40;;;43.00;;
18732;SDS011;9495;51.210;2.934;2024-03-08T05:31:45;70.20;;;43.70;;
18732;SDS011;9495;51.210;2.934;2024-03-08T05:34:14;70.73;;;43.33;;
18732;SDS011;9495;51.210;2.934;2024-03-08T05:36:43;71.57;;;41.97;;
18732;SDS011;9495;51.210;2.934;2024-03-08T05:39:12;75.60;;;44.53;;
18732;SDS011;9495;51.210;2.934;2024-03-08T05:41:41;74.70;;;44.43;;
18732;SDS011;9495;51.210;2.934;2024-03-08T05:44:12;76.07;;;41.03;;
18732;SDS011;9495;51.210;2.934;2024-03-08T05:46:40;74.47;;;43.53;;
18732;SDS011;9495;51.210;2.934;2024-03-08T05:49:09;78.53;;;44.03;;
18732;SDS011;9495;51.210;2.934;2024-03-08T05:51:39;71.67;;;43.90;;
18732;SDS011;9495;51.210;2.934;2024-03-08T05:54:08;69.93;;;42.73;;
18732;SDS011;9495;51.210;2.934;2024-03-08T05:56:41;76.77;;;44.47;;
18732;SDS011;9495;51.210;2.934;2024-03-08T05:59:12;69.80;;;42.57;;
18732;SDS011;9495;51.210;2.934;2024-03-08T06:01:41;68.97;;;42.87;;
18732;SDS011;9495;51.210;2.934;2024-03-08T06:04:09;70.73;;;43.07;;
18732;SDS011;9495;51.210;2.934;2024-03-08T06:06:39;76.03;;;43.17;;
18732;SDS011;9495;51.210;2.934;2024-03-08T06:09:08;75.70;;;43.33;;
18732;SDS011;9495;51.210;2.934;2024-03-08T06:11:39;82.23;;;43.90;;
18732;SDS011;9495;51.210;2.934;2024-03-08T06:14:09;83.77;;;42.93;;
18732;SDS011;9495;51.210;2.934;2024-03-08T06:16:39;74.17;;;42.73;;
18732;SDS011;9495;51.210;2.934;2024-03-08T06:19:07;74.80;;;42.80;;
18732;SDS011;9495;51.210;2.934;2024-03-08T06:21:35;76.27;;;43.67;;
18732;SDS011;9495;51.210;2.934;2024-03-08T06:24:04;76.60;;;43.57;;
18732;SDS011;9495;51.210;2.934;2024-03-08T06:26:33;67.80;;;43.10;;
18732;SDS011;9495;51.210;2.934;2024-03-08T06:29:05;68.87;;;42.80;;
18732;SDS011;9495;51.210;2.934;2024-03-08T06:31:34;67.77;;;40.00;;
18732;SDS011;9495;51.210;2.934;2024-03-08T06:34:07;71.17;;;42.03;;
18732;SDS011;9495;51.210;2.934;2024-03-08T06:36:36;64.67;;;39.00;;
18732;SDS011;9495;51.210;2.934;2024-03-08T06:39:05;64.90;;;40.33;;
18732;SDS011;9495;51.210;2.934;2024-03-08T06:41:36;68.43;;;41.43;;
18732;SDS011;9495;51.210;2.934;2024-03-08T06:44:05;59.83;;;39.00;;
18732;SDS011;9495;51.210;2.934;2024-03-08T06:46:35;73.70;;;41.40;;
18732;SDS011;9495;51.210;2.934;2024-03-08T06:49:04;63.47;;;39.30;;
18732;SDS011;9495;51.210;2.934;2024-03-08T06:51:37;65.13;;;39.27;;
18732;SDS011;9495;51.210;2.934;2024-03-08T06:54:07;60.70;;;38.37;;
18732;SDS011;9495;51.210;2.934;2024-03-08T06:56:36;65.23;;;40.27;;
18732;SDS011;9495;51.210;2.934;2024-03-08T06:59:05;65.33;;;40.20;;
18732;SDS011;9495;51.210;2.934;2024-03-08T07:01:38;58.93;;;35.07;;
18732;SDS011;9495;51.210;2.934;2024-03-08T07:04:08;72.87;;;42.47;;
18732;SDS011;9495;51.210;2.934;2024-03-08T07:06:38;67.00;;;39.23;;
18732;SDS011;9495;51.210;2.934;2024-03-08T07:09:07;70.73;;;40.47;;
18732;SDS011;9495;51.210;2.934;2024-03-08T07:11:35;71.70;;;40.60;;
18732;SDS011;9495;51.210;2.934;2024-03-08T07:14:05;70.93;;;40.60;;
18732;SDS011;9495;51.210;2.934;2024-03-08T07:16:34;67.33;;;40.53;;
18732;SDS011;9495;51.210;2.934;2024-03-08T07:19:03;66.93;;;41.00;;
18732;SDS011;9495;51.210;2.934;2024-03-08T07:21:33;63.27;;;39.33;;
18732;SDS011;9495;51.210;2.934;2024-03-08T07:24:02;70.43;;;41.00;;
18732;SDS011;9495;51.210;2.934;2024-03-08T07:26:44;66.20;;;39.30;;
18732;SDS011;9495;51.210;2.934;2024-03-08T07:29:15;59.27;;;39.33;;
18732;SDS011;9495;51.210;2.934;2024-03-08T07:31:44;70.27;;;40.00;;
18732;SDS011;9495;51.210;2.934;2024-03-08T07:34:21;58.60;;;38.03;;
18732;SDS011;9495;51.210;2.934;2024-03-08T07:36:51;59.00;;;34.67;;
18732;SDS011;9495;51.210;2.934;2024-03-08T07:39:20;64.27;;;37.63;;
18732;SDS011;9495;51.210;2.934;2024-03-08T07:41:50;65.17;;;40.10;;
18732;SDS011;9495;51.210;2.934;2024-03-08T07:44:19;63.47;;;39.33;;
18732;SDS011;9495;51.210;2.934;2024-03-08T07:46:47;65.30;;;38.80;;
18732;SDS011;9495;51.210;2.934;2024-03-08T07:49:17;57.20;;;34.97;;
18732;SDS011;9495;51.210;2.934;2024-03-08T07:51:45;65.47;;;37.80;;
18732;SDS011;9495;51.210;2.934;2024-03-08T07:54:16;66.80;;;34.60;;
18732;SDS011;9495;51.210;2.934;2024-03-08T07:56:45;59.83;;;32.13;;
18732;SDS011;9495;51.210;2.934;2024-03-08T07:59:13;42.20;;;23.00;;
18732;SDS011;9495;51.210;2.934;2024-03-08T08:01:42;56.07;;;33.33;;
18732;SDS011;9495;51.210;2.934;2024-03-08T08:04:10;46.33;;;31.43;;
18732;SDS011;9495;51.210;2.934;2024-03-08T08:06:40;57.63;;;32.77;;
18732;SDS011;9495;51.210;2.934;2024-03-08T08:09:09;55.90;;;35.90;;
18732;SDS011;9495;51.210;2.934;2024-03-08T08:11:42;52.60;;;30.80;;
18732;SDS011;9495;51.210;2.934;2024-03-08T08:14:10;51.00;;;32.57;;
18732;SDS011;9495;51.210;2.934;2024-03-08T08:16:39;50.27;;;33.87;;
18732;SDS011;9495;51.210;2.934;2024-03-08T08:19:09;47.13;;;30.47;;
18732;SDS011;9495;51.210;2.934;2024-03-08T08:21:40;50.17;;;31.50;;
18732;SDS011;9495;51.210;2.934;2024-03-08T08:24:09;53.47;;;31.43;;
18732;SDS011;9495;51.210;2.934;2024-03-08T08:26:38;54.40;;;32.47;;
18732;SDS011;9495;51.210;2.934;2024-03-08T08:29:08;58.00;;;33.53;;
18732;SDS011;9495;51.210;2.934;2024-03-08T08:31:36;56.70;;;34.13;;
18732;SDS011;9495;51.210;2.934;2024-03-08T08:34:05;49.07;;;32.67;;
18732;SDS011;9495;51.210;2.934;2024-03-08T08:36:33;51.97;;;32.00;;
18732;SDS011;9495;51.210;2.934;2024-03-08T08:39:03;37.90;;;21.30;;
18732;SDS011;9495;51.210;2.934;2024-03-08T08:41:32;49.87;;;32.60;;
18732;SDS011;9495;51.210;2.934;2024-03-08T08:44:00;48.50;;;31.73;;
18732;SDS011;9495;51.210;2.934;2024-03-08T08:46:42;48.67;;;29.33;;
18732;SDS011;9495;51.210;2.934;2024-03-08T08:49:11;49.20;;;31.53;;
18732;SDS011;9495;51.210;2.934;2024-03-08T08:51:41;46.67;;;29.00;;
18732;SDS011;9495;51.210;2.934;2024-03-08T08:54:09;44.70;;;28.00;;
18732;SDS011;9495;51.210;2.934;2024-03-08T08:56:40;43.90;;;29.73;;
18732;SDS011;9495;51.210;2.934;2024-03-08T08:59:10;48.53;;;31.93;;
18732;SDS011;9495;51.210;2.934;2024-03-08T09:01:40;44.30;;;29.37;;
18732;SDS011;9495;51.210;2.934;2024-03-08T09:04:10;47.60;;;30.80;;
18732;SDS011;9495;51.210;2.934;2024-03-08T09:06:38;31.37;;;16.97;;
18732;SDS011;9495;51.210;2.934;2024-03-08T09:09:07;45.90;;;26.67;;
18732;SDS011;9495;51.210;2.934;2024-03-08T09:11:37;38.57;;;27.67;;
18732;SDS011;9495;51.210;2.934;2024-03-08T09:14:08;31.50;;;20.07;;
18732;SDS011;9495;51.210;2.934;2024-03-08T09:16:38;41.80;;;26.83;;
18732;SDS011;9495;51.210;2.934;2024-03-08T09:19:07;42.27;;;26.97;;
18732;SDS011;9495;51.210;2.934;2024-03-08T09:21:38;39.73;;;28.77;;
18732;SDS011;9495;51.210;2.934;2024-03-08T09:24:07;38.07;;;26.17;;
18732;SDS011;9495;51.210;2.934;2024-03-08T09:26:35;36.10;;;22.07;;
18732;SDS011;9495;51.210;2.934;2024-03-08T09:29:04;40.07;;;28.43;;
18732;SDS011;9495;51.210;2.934;2024-03-08T09:31:33;31.10;;;18.70;;
18732;SDS011;9495;51.210;2.934;2024-03-08T09:34:01;40.40;;;29.37;;
18732;SDS011;9495;51.210;2.934;2024-03-08T09:36:30;45.93;;;27.50;;
18732;SDS011;9495;51.210;2.934;2024-03-08T09:39:00;35.23;;;24.70;;
18732;SDS011;9495;51.210;2.934;2024-03-08T09:41:29;38.70;;;26.10;;
18732;SDS011;9495;51.210;2.934;2024-03-08T09:43:58;42.33;;;26.90;;
18732;SDS011;9495;51.210;2.934;2024-03-08T09:46:27;33.37;;;22.50;;
18732;SDS011;9495;51.210;2.934;2024-03-08T09:48:55;36.23;;;22.73;;
18732;SDS011;9495;51.210;2.934;2024-03-08T09:51:26;30.93;;;20.93;;
18732;SDS011;9495;51.210;2.934;2024-03-08T09:53:57;37.63;;;25.57;;
18732;SDS011;9495;51.210;2.934;2024-03-08T09:56:31;41.20;;;26.07;;
18732;SDS011;9495;51.210;2.934;2024-03-08T09:59:00;35.17;;;23.90;;
18732;SDS011;9495;51.210;2.934;2024-03-08T10:01:52;32.50;;;22.83;;
18732;SDS011;9495;51.210;2.934;2024-03-08T10:04:22;32.77;;;22.33;;
18732;SDS011;9495;51.210;2.934;2024-03-08T10:06:52;30.90;;;17.10;;
18732;SDS011;9495;51.210;2.934;2024-03-08T10:09:20;37.00;;;22.95;;
18732;SDS011;9495;51.210;2.934;2024-03-08T10:11:54;34.38;;;22.85;;
18732;SDS011;9495;51.210;2.934;2024-03-08T10:14:24;33.43;;;22.67;;
18732;SDS011;9495;51.210;2.934;2024-03-08T10:16:53;19.67;;;13.77;;
18732;SDS011;9495;51.210;2.934;2024-03-08T10:19:26;29.00;;;19.37;;
18732;SDS011;9495;51.210;2.934;2024-03-08T10:21:56;31.02;;;22.35;;
18732;SDS011;9495;51.210;2.934;2024-03-08T10:24:26;27.67;;;21.45;;
18732;SDS011;9495;51.210;2.934;2024-03-08T10:26:56;31.30;;;21.88;;
18732;SDS011;9495;51.210;2.934;2024-03-08T10:29:26;27.50;;;19.50;;
18732;SDS011;9495;51.210;2.934;2024-03-08T10:31:55;26.73;;;19.70;;
18732;SDS011;9495;51.210;2.934;2024-03-08T10:34:23;30.77;;;20.15;;
18732;SDS011;9495;51.210;2.934;2024-03-08T10:36:52;27.15;;;19.83;;
18732;SDS011;9495;51.210;2.934;2024-03-08T10:39:25;32.50;;;21.25;;
18732;SDS011;9495;51.210;2.934;2024-03-08T10:42:02;31.90;;;23.85;;
18732;SDS011;9495;51.210;2.934;2024-03-08T10:44:44;27.50;;;19.02;;
18732;SDS011;9495;51.210;2.934;2024-03-08T10:47:23;30.50;;;22.95;;
18732;SDS011;9495;51.210;2.934;2024-03-08T10:49:59;27.48;;;19.30;;
18732;SDS011;9495;51.210;2.934;2024-03-08T10:52:36;29.30;;;21.23;;
18732;SDS011;9495;51.210;2.934;2024-03-08T10:55:05;21.45;;;13.65;;
18732;SDS011;9495;51.210;2.934;2024-03-08T10:57:40;26.05;;;16.00;;
18732;SDS011;9495;51.210;2.934;2024-03-08T11:00:09;26.73;;;20.10;;
18732;SDS011;9495;51.210;2.934;2024-03-08T11:02:43;28.80;;;21.15;;
18732;SDS011;9495;51.210;2.934;2024-03-08T11:05:13;14.57;;;6.47;;
18732;SDS011;9495;51.210;2.934;2024-03-08T11:08:02;32.45;;;21.70;;
18732;SDS011;9495;51.210;2.934;2024-03-08T11:10:31;28.10;;;20.17;;
18732;SDS011;9495;51.210;2.934;2024-03-08T11:13:01;29.95;;;18.23;;
18732;SDS011;9495;51.210;2.934;2024-03-08T11:15:29;28.25;;;21.17;;
18732;SDS011;9495;51.210;2.934;2024-03-08T11:17:58;30.95;;;24.17;;
18732;SDS011;9495;51.210;2.934;2024-03-08T11:20:28;35.60;;;25.47;;
18732;SDS011;9495;51.210;2.934;2024-03-08T11:23:00;29.13;;;25.60;;
18732;SDS011;9495;51.210;2.934;2024-03-08T11:25:37;31.53;;;25.57;;
18732;SDS011;9495;51.210;2.934;2024-03-08T11:28:09;33.97;;;24.63;;
18732;SDS011;9495;51.210;2.934;2024-03-08T11:30:44;30.73;;;23.63;;
18732;SDS011;9495;51.210;2.934;2024-03-08T11:33:16;32.87;;;22.70;;
18732;SDS011;9495;51.210;2.934;2024-03-08T11:35:45;34.20;;;22.10;;
18732;SDS011;9495;51.210;2.934;2024-03-08T11:38:14;28.57;;;20.70;;
18732;SDS011;9495;51.210;2.934;2024-03-08T11:40:45;30.83;;;22.23;;
18732;SDS011;9495;51.210;2.934;2024-03-08T11:43:18;28.77;;;19.63;;
18732;SDS011;9495;51.210;2.934;2024-03-08T11:45:46;32.23;;;22.80;;
18732;SDS011;9495;51.210;2.934;2024-03-08T11:48:14;33.80;;;23.03;;
18732;SDS011;9495;51.210;2.934;2024-03-08T11:50:43;34.47;;;22.67;;
18732;SDS011;9495;51.210;2.934;2024-03-08T11:53:11;30.77;;;21.83;;
18732;SDS011;9495;51.210;2.934;2024-03-08T11:55:40;31.03;;;21.07;;
18732;SDS011;9495;51.210;2.934;2024-03-08T11:58:09;30.30;;;22.90;;
18732;SDS011;9495;51.210;2.934;2024-03-08T12:00:41;37.27;;;21.87;;
18732;SDS011;9495;51.210;2.934;2024-03-08T12:03:09;32.65;;;22.75;;
18732;SDS011;9495;51.210;2.934;2024-03-08T12:05:38;27.93;;;18.67;;
18732;SDS011;9495;51.210;2.934;2024-03-08T12:08:06;31.73;;;22.80;;
18732;SDS011;9495;51.210;2.934;2024-03-08T12:10:40;30.93;;;20.80;;
18732;SDS011;9495;51.210;2.934;2024-03-08T12:13:09;30.02;;;21.17;;
18732;SDS011;9495;51.210;2.934;2024-03-08T12:15:41;29.92;;;21.55;;
18732;SDS011;9495;51.210;2.934;2024-03-08T12:18:10;28.30;;;18.97;;
18732;SDS011;9495;51.210;2.934;2024-03-08T12:20:39;28.63;;;19.92;;
18732;SDS011;9495;51.210;2.934;2024-03-08T12:23:13;29.08;;;22.15;;
18732;SDS011;9495;51.210;2.934;2024-03-08T12:25:43;31.23;;;21.92;;
18732;SDS011;9495;51.210;2.934;2024-03-08T12:28:12;32.80;;;19.43;;
18732;SDS011;9495;51.210;2.934;2024-03-08T12:30:47;31.17;;;22.65;;
18732;SDS011;9495;51.210;2.934;2024-03-08T12:33:17;32.28;;;22.17;;
18732;SDS011;9495;51.210;2.934;2024-03-08T12:35:52;26.43;;;18.37;;
18732;SDS011;9495;51.210;2.934;2024-03-08T12:38:22;28.03;;;20.63;;
18732;SDS011;9495;51.210;2.934;2024-03-08T12:40:54;30.40;;;22.60;;
18732;SDS011;9495;51.210;2.934;2024-03-08T12:43:24;34.57;;;20.97;;
18732;SDS011;9495;51.210;2.934;2024-03-08T12:45:54;29.80;;;20.00;;
18732;SDS011;9495;51.210;2.934;2024-03-08T12:48:22;26.90;;;17.57;;
18732;SDS011;9495;51.210;2.934;2024-03-08T12:50:51;25.90;;;18.08;;
18732;SDS011;9495;51.210;2.934;2024-03-08T12:53:20;26.58;;;19.33;;
18732;SDS011;9495;51.210;2.934;2024-03-08T12:55:49;28.58;;;20.92;;
18732;SDS011;9495;51.210;2.934;2024-03-08T12:58:19;27.95;;;20.73;;
18732;SDS011;9495;51.210;2.934;2024-03-08T13:00:47;27.05;;;19.02;;
18732;SDS011;9495;51.210;2.934;2024-03-08T13:03:21;29.97;;;21.83;;
18732;SDS011;9495;51.210;2.934;2024-03-08T13:05:50;27.98;;;18.35;;
18732;SDS011;9495;51.210;2.934;2024-03-08T13:08:18;26.33;;;16.77;;
18732;SDS011;9495;51.210;2.934;2024-03-08T13:10:48;32.22;;;19.15;;
18732;SDS011;9495;51.210;2.934;2024-03-08T13:13:17;26.47;;;18.00;;
18732;SDS011;9495;51.210;2.934;2024-03-08T13:15:46;23.65;;;15.00;;
18732;SDS011;9495;51.210;2.934;2024-03-08T13:18:15;29.60;;;18.57;;
18732;SDS011;9495;51.210;2.934;2024-03-08T13:20:45;27.77;;;19.30;;
18732;SDS011;9495;51.210;2.934;2024-03-08T13:23:16;27.60;;;20.15;;
18732;SDS011;9495;51.210;2.934;2024-03-08T13:25:44;24.92;;;16.45;;
18732;SDS011;9495;51.210;2.934;2024-03-08T13:28:14;22.67;;;14.98;;
18732;SDS011;9495;51.210;2.934;2024-03-08T13:30:43;26.52;;;19.35;;
18732;SDS011;9495;51.210;2.934;2024-03-08T13:33:12;23.17;;;15.00;;
18732;SDS011;9495;51.210;2.934;2024-03-08T13:35:41;23.90;;;18.65;;
18732;SDS011;9495;51.210;2.934;2024-03-08T13:38:11;25.58;;;19.05;;
18732;SDS011;9495;51.210;2.934;2024-03-08T13:40:39;26.13;;;17.00;;
18732;SDS011;9495;51.210;2.934;2024-03-08T13:43:08;22.70;;;15.13;;
18732;SDS011;9495;51.210;2.934;2024-03-08T13:45:36;24.17;;;17.10;;
18732;SDS011;9495;51.210;2.934;2024-03-08T13:48:05;22.52;;;15.95;;
18732;SDS011;9495;51.210;2.934;2024-03-08T13:50:39;21.98;;;14.80;;
18732;SDS011;9495;51.210;2.934;2024-03-08T13:53:07;24.45;;;17.10;;
18732;SDS011;9495;51.210;2.934;2024-03-08T13:55:38;22.67;;;16.80;;
18732;SDS011;9495;51.210;2.934;2024-03-08T13:58:07;25.55;;;17.88;;
18732;SDS011;9495;51.210;2.934;2024-03-08T14:00:36;25.30;;;18.00;;
18732;SDS011;9495;51.210;2.934;2024-03-08T14:03:07;24.77;;;17.00;;
18732;SDS011;9495;51.210;2.934;2024-03-08T14:05:38;22.52;;;16.25;;
18732;SDS011;9495;51.210;2.934;2024-03-08T14:08:06;23.63;;;17.48;;
18732;SDS011;9495;51.210;2.934;2024-03-08T14:10:35;23.05;;;16.80;;
18732;SDS011;9495;51.210;2.934;2024-03-08T14:13:05;26.27;;;18.88;;
18732;SDS011;9495;51.210;2.934;2024-03-08T14:15:34;26.05;;;17.98;;
18732;SDS011;9495;51.210;2.934;2024-03-08T14:18:05;24.70;;;18.15;;
18732;SDS011;9495;51.210;2.934;2024-03-08T14:20:34;25.67;;;17.45;;
18732;SDS011;9495;51.210;2.934;2024-03-08T14:23:02;24.35;;;18.00;;
18732;SDS011;9495;51.210;2.934;2024-03-08T14:25:33;24.58;;;17.25;;
18732;SDS011;9495;51.210;2.934;2024-03-08T14:28:01;26.67;;;17.98;;
18732;SDS011;9495;51.210;2.934;2024-03-08T14:30:34;24.08;;;16.98;;
18732;SDS011;9495;51.210;2.934;2024-03-08T14:33:05;23.38;;;17.27;;
18732;SDS011;9495;51.210;2.934;2024-03-08T14:35:36;23.95;;;17.00;;
18732;SDS011;9495;51.210;2.934;2024-03-08T14:38:04;23.42;;;15.95;;
18732;SDS011;9495;51.210;2.934;2024-03-08T14:40:35;26.42;;;17.65;;
18732;SDS011;9495;51.210;2.934;2024-03-08T14:43:04;24.08;;;17.33;;
18732;SDS011;9495;51.210;2.934;2024-03-08T14:45:34;22.02;;;14.70;;
18732;SDS011;9495;51.210;2.934;2024-03-08T14:48:04;22.08;;;17.30;;